Time;durP1;ratioP1;P1;durP2;ratioP2;P2;SDS_P1;SDS_P2;PMS_P1;PMS_P2;Temp;Humidity;BMP_temperature;BMP_pressure;BME280_temperature;BME280_humidity;BME280_pressure;Samples;Min_cycle;Max_cycle;Signal;HPM_P1;HPM_P2
2024/01/16 00:01:35;;;;;;;12.15;2.55;;;22.10;49.90;;;;;;5132799;27;20084;-46
2024/01/16 00:04:02;;;;;;;14.32;3.80;;;22.10;49.70;;;;;;5114674;27;20493;-58
2024/01/16 00:06:28;;;;;;;11.95;3.67;;;21.90;51.20;;;;;;5113223;27;20215;-50
2024/01/16 00:08:55;;;;;;;18.17;4.53;;;21.80;51.60;;;;;;5109985;27;20071;-52
2024/01/16 00:11:22;;;;;;;19.80;4.88;;;21.80;52.60;;;;;;5110993;27;20075;-54
2024/01/16 00:13:49;;;;;;;19.75;9.55;;;21.60;53.10;;;;;;5110353;27;20107;-50
2024/01/16 00:16:15;;;;;;;17.38;4.82;;;21.50;53.30;;;;;;5109454;27;20071;-54
2024/01/16 00:18:42;;;;;;;16.15;5.05;;;21.40;53.60;;;;;;5111265;27;20083;-52
2024/01/16 00:21:09;;;;;;;14.52;4.47;;;21.20;54.50;;;;;;5128071;27;20072;-54
2024/01/16 00:23:36;;;;;;;19.35;5.05;;;21.10;55.20;;;;;;5110824;27;20418;-50
2024/01/16 00:26:04;;;;;;;19.48;5.45;;;21.00;55.40;;;;;;5109988;27;20095;-53
2024/01/16 00:28:35;;;;;;;18.15;4.72;;;20.80;55.80;;;;;;5106716;27;20064;-51
2024/01/16 00:31:07;;;;;;;26.95;13.20;;;20.70;56.00;;;;;;5127587;27;20067;-56
2024/01/16 00:33:36;;;;;;;12.93;4.70;;;20.60;56.30;;;;;;5111262;27;20110;-52
2024/01/16 00:36:03;;;;;;;17.00;4.60;;;20.50;56.50;;;;;;5127780;27;20079;-51
2024/01/16 00:38:33;;;;;;;11.98;4.38;;;20.40;56.70;;;;;;5128482;27;20080;-49
2024/01/16 00:41:01;;;;;;;14.05;4.25;;;20.30;56.80;;;;;;5127797;27;20072;-59
2024/01/16 00:43:28;;;;;;;12.10;4.05;;;20.10;57.00;;;;;;5111288;27;20182;-57
2024/01/16 00:45:55;;;;;;;20.60;4.95;;;20.00;57.20;;;;;;5126565;27;20111;-46
2024/01/16 00:48:23;;;;;;;21.50;5.25;;;20.00;57.40;;;;;;5129841;27;20436;-46
2024/01/16 00:50:50;;;;;;;21.02;4.60;;;19.80;57.90;;;;;;5112918;27;20171;-58
2024/01/16 00:53:17;;;;;;;17.70;5.20;;;19.60;58.40;;;;;;5111753;27;20115;-48
2024/01/16 00:55:43;;;;;;;21.42;5.20;;;19.40;58.60;;;;;;5127604;27;20162;-46
2024/01/16 00:58:10;;;;;;;18.92;5.38;;;19.30;58.90;;;;;;5129235;27;20068;-52
2024/01/16 01:00:37;;;;;;;26.98;5.80;;;19.20;59.40;;;;;;5110878;27;20078;-48
2024/01/16 01:03:04;;;;;;;28.90;6.28;;;19.00;59.90;;;;;;5127876;27;20078;-50
2024/01/16 01:05:30;;;;;;;26.95;10.25;;;18.90;60.60;;;;;;5110474;27;20078;-47
2024/01/16 01:07:58;;;;;;;33.63;12.15;;;18.70;60.90;;;;;;5111409;27;20075;-48
2024/01/16 01:10:24;;;;;;;29.17;10.43;;;18.60;61.50;;;;;;5128092;27;20076;-45
2024/01/16 01:12:54;;;;;;;47.88;11.10;;;18.50;62.30;;;;;;5126703;27;20076;-48
2024/01/16 01:15:22;;;;;;;41.22;9.23;;;18.30;63.10;;;;;;5126365;27;20843;-51
2024/01/16 01:17:52;;;;;;;45.53;9.07;;;18.20;63.90;;;;;;5127457;27;20068;-49
2024/01/16 01:20:19;;;;;;;36.90;8.68;;;18.10;64.50;;;;;;5127225;27;20084;-59
2024/01/16 01:22:46;;;;;;;31.52;8.30;;;18.00;65.10;;;;;;5127340;27;20166;-47
2024/01/16 01:25:13;;;;;;;38.65;8.98;;;17.80;65.60;;;;;;5127583;27;20079;-58
2024/01/16 01:27:40;;;;;;;44.72;8.07;;;17.70;66.20;;;;;;5127839;27;20125;-49
2024/01/16 01:30:11;;;;;;;48.20;7.97;;;17.50;66.50;;;;;;5109731;27;20076;-48
2024/01/16 01:32:39;;;;;;;35.13;7.63;;;17.40;67.00;;;;;;5108946;27;20087;-51
2024/01/16 01:35:06;;;;;;;36.92;7.90;;;17.40;68.70;;;;;;5128011;27;20511;-49
2024/01/16 01:37:34;;;;;;;46.15;8.55;;;17.30;68.30;;;;;;5107203;27;20124;-48
2024/01/16 01:40:01;;;;;;;43.70;8.20;;;17.20;68.10;;;;;;5109383;27;20090;-64
2024/01/16 01:42:29;;;;;;;44.35;8.27;;;17.10;68.60;;;;;;5108302;27;20082;-62
2024/01/16 01:44:57;;;;;;;59.70;10.48;;;17.10;69.30;;;;;;5109573;27;20171;-62
2024/01/16 01:47:25;;;;;;;68.72;20.70;;;16.90;69.70;;;;;;5109696;27;20112;-62
2024/01/16 01:49:53;;;;;;;56.20;16.08;;;16.90;70.30;;;;;;5127477;27;20063;-62
2024/01/16 01:52:21;;;;;;;73.03;14.98;;;16.80;70.80;;;;;;5127864;27;20122;-63
2024/01/16 01:54:49;;;;;;;61.10;14.48;;;16.80;71.30;;;;;;5127599;27;20099;-63
2024/01/16 01:57:17;;;;;;;69.28;14.15;;;16.70;71.50;;;;;;5120089;27;20092;-49
2024/01/16 01:59:47;;;;;;;63.20;12.95;;;16.60;71.90;;;;;;5109439;27;20529;-48
2024/01/16 02:02:16;;;;;;;47.58;11.60;;;16.50;72.30;;;;;;5106155;28;20087;-45
2024/01/16 02:04:46;;;;;;;59.65;12.35;;;16.40;72.80;;;;;;5122970;27;20572;-46
2024/01/16 02:07:15;;;;;;;83.75;14.02;;;16.30;73.50;;;;;;5125830;27;20444;-45
2024/01/16 02:09:48;;;;;;;86.32;14.52;;;16.20;74.10;;;;;;5105509;27;20095;-45
2024/01/16 02:12:34;;;;;;;98.13;15.32;;;16.10;74.50;;;;;;5125435;27;20084;-51
2024/01/16 02:15:05;;;;;;;81.55;15.80;;;16.20;75.10;;;;;;5125648;27;20557;-49
2024/01/16 02:17:49;;;;;;;98.55;15.23;;;16.10;75.10;;;;;;5091194;27;20076;-47
2024/01/16 02:20:17;;;;;;;78.75;14.93;;;16.00;75.60;;;;;;5107264;27;20083;-51
2024/01/16 02:22:49;;;;;;;94.65;15.73;;;16.10;76.20;;;;;;5108016;27;20082;-49
2024/01/16 02:25:18;;;;;;;98.38;15.35;;;15.90;76.50;;;;;;5125816;27;20429;-53
2024/01/16 02:27:46;;;;;;;93.18;14.27;;;15.90;77.20;;;;;;5109061;27;20613;-52
2024/01/16 02:30:13;;;;;;;74.25;16.10;;;15.80;77.40;;;;;;5124714;27;20159;-47
2024/01/16 02:32:41;;;;;;;88.68;15.77;;;15.80;78.00;;;;;;5108570;27;20072;-49
2024/01/16 02:35:09;;;;;;;97.10;16.08;;;15.70;78.60;;;;;;5109080;27;20079;-50
2024/01/16 02:37:37;;;;;;;79.70;18.23;;;15.70;79.00;;;;;;5106966;28;20445;-47
2024/01/16 02:40:06;;;;;;;88.93;18.40;;;15.60;79.40;;;;;;5108652;27;20170;-49
2024/01/16 02:42:43;;;;;;;95.30;17.42;;;15.60;79.90;;;;;;5092215;28;20083;-48
2024/01/16 02:45:10;;;;;;;89.07;17.98;;;15.50;80.10;;;;;;5123973;27;20722;-50
2024/01/16 02:47:37;;;;;;;69.45;18.65;;;15.50;80.50;;;;;;5105647;28;20148;-46
2024/01/16 02:50:05;;;;;;;80.85;18.45;;;15.50;80.60;;;;;;5125700;27;20102;-46
2024/01/16 02:52:34;;;;;;;85.82;19.90;;;15.40;80.90;;;;;;5126647;27;20203;-50
2024/01/16 02:55:02;;;;;;;114.32;19.50;;;15.30;81.80;;;;;;5127842;28;20096;-48
2024/01/16 02:57:29;;;;;;;99.03;20.17;;;15.30;82.50;;;;;;5109343;28;20537;-50
2024/01/16 02:59:56;;;;;;;104.90;21.50;;;15.30;82.70;;;;;;5108637;28;20502;-50
2024/01/16 03:02:25;;;;;;;86.90;19.27;;;15.30;83.70;;;;;;5125580;28;20075;-48
2024/01/16 03:04:54;;;;;;;91.15;20.58;;;15.20;83.00;;;;;;5124744;28;20076;-46
2024/01/16 03:07:22;;;;;;;92.82;19.30;;;15.20;84.10;;;;;;5107118;28;20078;-48
2024/01/16 03:09:49;;;;;;;80.97;19.50;;;15.10;83.70;;;;;;5127671;28;20457;-48
2024/01/16 03:12:16;;;;;;;73.65;18.63;;;15.00;84.60;;;;;;5105406;28;20080;-49
2024/01/16 03:14:42;;;;;;;86.28;18.60;;;15.00;85.50;;;;;;5107490;28;20104;-50
2024/01/16 03:17:11;;;;;;;72.45;18.05;;;15.00;87.00;;;;;;5109165;28;20079;-48
2024/01/16 03:19:38;;;;;;;74.82;17.90;;;14.90;86.40;;;;;;5106147;28;20107;-50
2024/01/16 03:22:04;;;;;;;76.90;16.80;;;14.90;86.80;;;;;;5107234;28;20098;-70
2024/01/16 03:24:31;;;;;;;75.00;18.05;;;14.90;87.10;;;;;;5107703;28;20072;-71
2024/01/16 03:26:57;;;;;;;69.78;16.48;;;14.80;87.10;;;;;;5107937;28;20440;-73
2024/01/16 03:29:23;;;;;;;79.13;17.30;;;14.70;87.60;;;;;;5126377;28;20544;-68
2024/01/16 03:31:50;;;;;;;65.78;16.45;;;14.70;87.70;;;;;;5125586;28;21048;-71
2024/01/16 03:34:17;;;;;;;80.22;16.25;;;14.70;88.10;;;;;;5104225;28;20650;-62
2024/01/16 03:36:43;;;;;;;65.93;15.32;;;14.70;88.20;;;;;;5125102;28;20112;-65
2024/01/16 03:39:10;;;;;;;85.47;16.38;;;14.60;88.70;;;;;;5122258;28;20083;-66
2024/01/16 03:41:36;;;;;;;76.50;17.10;;;14.60;89.10;;;;;;5127333;27;20776;-61
2024/01/16 03:44:03;;;;;;;75.25;18.38;;;14.50;89.20;;;;;;5115495;22;20148;-69
2024/01/16 03:46:29;;;;;;;89.90;17.92;;;14.50;89.80;;;;;;5060808;28;20077;-72
2024/01/16 03:48:56;;;;;;;82.10;18.20;;;14.50;90.20;;;;;;5052252;28;20505;-59
2024/01/16 03:51:23;;;;;;;82.55;19.15;;;14.40;90.40;;;;;;5037085;28;20081;-47
2024/01/16 03:53:49;;;;;;;97.75;21.02;;;14.40;90.70;;;;;;5046336;28;20577;-51
2024/01/16 03:56:18;;;;;;;89.40;18.70;;;14.30;91.00;;;;;;5032692;28;20120;-48
2024/01/16 03:58:44;;;;;;;86.55;18.50;;;14.30;91.10;;;;;;5046861;28;21359;-49
2024/01/16 04:01:13;;;;;;;105.32;19.42;;;14.20;91.30;;;;;;5043411;28;20084;-49
2024/01/16 04:03:40;;;;;;;79.32;19.00;;;14.20;91.70;;;;;;5041720;28;20077;-54
2024/01/16 04:06:20;;;;;;;92.95;19.30;;;14.20;91.80;;;;;;5045272;28;20554;-57
2024/01/16 04:08:47;;;;;;;98.25;21.75;;;14.10;92.00;;;;;;5042906;28;20123;-59
2024/01/16 04:11:14;;;;;;;95.95;19.85;;;14.00;92.20;;;;;;5063622;28;20072;-54
2024/01/16 04:13:42;;;;;;;107.38;21.48;;;14.00;92.30;;;;;;5032623;28;20108;-51
2024/01/16 04:16:13;;;;;;;87.43;19.65;;;13.90;92.50;;;;;;5046381;28;20164;-54
2024/01/16 04:18:42;;;;;;;100.88;21.35;;;13.90;92.70;;;;;;5045260;28;20436;-53
2024/01/16 04:21:10;;;;;;;100.32;21.40;;;13.90;92.90;;;;;;5063953;28;20842;-58
2024/01/16 04:23:37;;;;;;;97.85;21.45;;;13.90;93.00;;;;;;5045755;28;20073;-52
2024/01/16 04:26:07;;;;;;;97.75;22.23;;;13.90;93.10;;;;;;5041904;28;20493;-47
2024/01/16 04:28:40;;;;;;;84.50;19.83;;;13.80;93.30;;;;;;5043240;28;20075;-48
2024/01/16 04:31:11;;;;;;;93.88;20.52;;;13.80;93.50;;;;;;5066873;28;20073;-48
2024/01/16 04:33:44;;;;;;;106.47;21.13;;;13.80;93.60;;;;;;5041986;28;20109;-49
2024/01/16 04:36:12;;;;;;;84.68;19.58;;;13.80;93.50;;;;;;5041560;28;20122;-52
2024/01/16 04:38:42;;;;;;;79.70;19.25;;;13.80;93.30;;;;;;5041678;28;21075;-52
2024/01/16 04:41:14;;;;;;;77.38;18.27;;;13.80;93.40;;;;;;5040893;28;20081;-49
2024/01/16 04:43:46;;;;;;;112.90;19.60;;;13.70;93.40;;;;;;5063125;28;20125;-47
2024/01/16 04:46:16;;;;;;;75.70;19.13;;;13.70;93.40;;;;;;5044995;28;20535;-52
2024/01/16 04:48:47;;;;;;;80.80;20.20;;;13.60;93.80;;;;;;5044282;28;20082;-54
2024/01/16 04:51:16;;;;;;;83.80;19.15;;;13.60;93.70;;;;;;5044364;28;20244;-48
2024/01/16 04:53:44;;;;;;;88.28;19.95;;;13.60;93.80;;;;;;5043992;28;20200;-49
2024/01/16 04:56:11;;;;;;;86.45;20.23;;;13.60;94.00;;;;;;5042909;28;20077;-48
2024/01/16 04:58:39;;;;;;;88.15;22.65;;;13.70;94.10;;;;;;5043953;28;20097;-51
2024/01/16 05:01:12;;;;;;;83.78;20.10;;;13.60;94.10;;;;;;5044689;28;20076;-57
2024/01/16 05:03:40;;;;;;;113.82;21.10;;;13.60;94.20;;;;;;5060110;28;20080;-50
2024/01/16 05:06:14;;;;;;;87.50;21.45;;;13.50;94.40;;;;;;5065633;28;20112;-49
2024/01/16 05:08:42;;;;;;;92.30;21.42;;;13.50;94.70;;;;;;5043381;28;20077;-50
2024/01/16 05:11:11;;;;;;;97.72;21.38;;;13.50;94.80;;;;;;5040531;28;20104;-52
2024/01/16 05:13:40;;;;;;;114.47;21.70;;;13.40;95.00;;;;;;5061863;28;20105;-56
2024/01/16 05:16:09;;;;;;;99.07;21.25;;;13.40;95.20;;;;;;5045811;28;20085;-58
2024/01/16 05:18:37;;;;;;;103.90;20.83;;;13.30;95.30;;;;;;5062219;28;20182;-47
2024/01/16 05:21:07;;;;;;;94.38;20.95;;;13.30;95.30;;;;;;5041471;28;20065;-51
2024/01/16 05:23:34;;;;;;;80.10;19.20;;;13.30;95.20;;;;;;5032159;28;20081;-50
2024/01/16 05:26:01;;;;;;;84.43;19.98;;;13.10;95.40;;;;;;5063256;28;20077;-51
2024/01/16 05:28:31;;;;;;;85.30;19.63;;;13.10;95.70;;;;;;5064627;28;20081;-56
2024/01/16 05:30:58;;;;;;;76.82;19.17;;;13.00;96.10;;;;;;5062822;28;20115;-53
2024/01/16 05:33:25;;;;;;;83.28;20.02;;;13.00;96.20;;;;;;5019418;28;20167;-55
2024/01/16 05:35:58;;;;;;;91.22;17.67;;;12.90;96.30;;;;;;5060962;28;20077;-54
2024/01/16 05:38:26;;;;;;;80.95;18.95;;;12.90;96.30;;;;;;5043616;28;20497;-50
2024/01/16 05:40:55;;;;;;;77.38;19.25;;;13.00;96.30;;;;;;5042231;28;20204;-56
2024/01/16 05:43:23;;;;;;;82.82;18.92;;;13.00;96.50;;;;;;5045437;28;20617;-52
2024/01/16 05:45:52;;;;;;;81.15;18.45;;;12.90;96.60;;;;;;5064779;28;20720;-52
2024/01/16 05:48:20;;;;;;;82.47;18.77;;;12.90;96.70;;;;;;5065755;28;20077;-55
2024/01/16 05:50:51;;;;;;;76.40;19.15;;;12.90;96.80;;;;;;5065066;28;20119;-50
2024/01/16 05:53:18;;;;;;;79.25;18.27;;;12.90;96.90;;;;;;5060822;28;20105;-50
2024/01/16 05:55:45;;;;;;;88.45;20.88;;;12.80;97.00;;;;;;5063175;28;20544;-53
2024/01/16 05:58:12;;;;;;;72.15;18.33;;;12.80;97.00;;;;;;5040766;28;20466;-56
2024/01/16 06:00:39;;;;;;;73.60;18.52;;;12.70;97.10;;;;;;5061912;28;20081;-53
2024/01/16 06:03:05;;;;;;;84.60;20.63;;;12.80;97.20;;;;;;5059128;28;20077;-56
2024/01/16 06:05:32;;;;;;;92.07;20.95;;;12.90;97.10;;;;;;5063087;28;20081;-53
2024/01/16 06:07:59;;;;;;;73.38;20.00;;;12.90;97.00;;;;;;5063539;28;20077;-48
2024/01/16 06:10:25;;;;;;;78.72;19.55;;;12.80;97.20;;;;;;5043124;28;20176;-53
2024/01/16 06:12:52;;;;;;;100.65;37.55;;;12.80;97.50;;;;;;5041301;28;20074;-51
2024/01/16 06:15:21;;;;;;;60.33;18.63;;;12.80;97.30;;;;;;5040304;28;20097;-51
2024/01/16 06:17:48;;;;;;;90.18;18.30;;;12.70;97.40;;;;;;5039801;28;20130;-49
2024/01/16 06:20:15;;;;;;;68.25;18.25;;;12.70;97.80;;;;;;5060842;28;20077;-45
2024/01/16 06:22:42;;;;;;;68.30;17.23;;;12.60;98.00;;;;;;5061117;28;20123;-53
2024/01/16 06:25:08;;;;;;;60.05;17.15;;;12.50;98.20;;;;;;5042096;28;20100;-55
2024/01/16 06:27:35;;;;;;;53.72;15.52;;;12.40;98.30;;;;;;5061496;28;20069;-59
2024/01/16 06:30:03;;;;;;;47.20;15.02;;;12.40;98.60;;;;;;5043661;28;20168;-52
2024/01/16 06:32:30;;;;;;;54.47;16.63;;;12.40;98.70;;;;;;5039452;28;20453;-47
2024/01/16 06:34:57;;;;;;;50.17;15.10;;;12.40;98.80;;;;;;5041119;28;20136;-56
2024/01/16 06:37:23;;;;;;;66.53;16.83;;;12.40;98.80;;;;;;5043549;28;20084;-50
2024/01/16 06:39:50;;;;;;;51.05;14.75;;;12.40;98.90;;;;;;5039863;28;20081;-50
2024/01/16 06:42:17;;;;;;;44.55;14.95;;;12.30;98.90;;;;;;5042396;28;20093;-50
2024/01/16 06:44:46;;;;;;;54.30;16.92;;;12.30;98.90;;;;;;5060178;28;20124;-48
2024/01/16 06:47:12;;;;;;;55.53;17.38;;;12.20;99.20;;;;;;5026634;28;20105;-51
2024/01/16 06:49:44;;;;;;;58.08;16.98;;;12.20;99.40;;;;;;5036211;28;20078;-49
2024/01/16 06:52:14;;;;;;;61.72;19.83;;;12.20;99.30;;;;;;5039885;28;20083;-52
2024/01/16 06:54:42;;;;;;;52.15;17.52;;;12.20;99.40;;;;;;5045672;28;20105;-52
2024/01/16 06:57:11;;;;;;;73.07;20.75;;;12.10;99.50;;;;;;5040051;28;20100;-50
2024/01/16 06:59:38;;;;;;;82.53;20.80;;;12.10;99.60;;;;;;5042045;28;20065;-50
2024/01/16 07:02:06;;;;;;;59.70;19.95;;;12.00;99.80;;;;;;5044723;28;20096;-51
2024/01/16 07:04:32;;;;;;;70.55;20.52;;;12.00;99.90;;;;;;5045525;28;20092;-51
2024/01/16 07:06:59;;;;;;;76.63;21.73;;;12.00;99.90;;;;;;5054553;28;20078;-54
2024/01/16 07:09:27;;;;;;;68.65;20.83;;;12.10;99.90;;;;;;5040735;28;20080;-48
2024/01/16 07:11:56;;;;;;;70.18;21.52;;;12.10;99.90;;;;;;5041492;28;20142;-49
2024/01/16 07:14:23;;;;;;;70.28;22.67;;;12.10;99.90;;;;;;5041230;28;20112;-51
2024/01/16 07:16:50;;;;;;;96.50;28.42;;;12.10;99.90;;;;;;5057994;28;20391;-55
2024/01/16 07:19:17;;;;;;;89.72;29.05;;;12.20;99.90;;;;;;5044541;28;20089;-48
2024/01/16 07:21:44;;;;;;;104.60;34.45;;;12.10;99.90;;;;;;5060859;28;20479;-51
2024/01/16 07:24:13;;;;;;;102.00;37.05;;;12.10;99.90;;;;;;5044309;28;20069;-48
2024/01/16 07:26:41;;;;;;;166.95;54.58;;;12.10;99.90;;;;;;5041013;28;20155;-53
2024/01/16 07:29:09;;;;;;;122.18;41.25;;;12.00;99.90;;;;;;5061640;28;20119;-53
2024/01/16 07:31:36;;;;;;;146.85;45.97;;;12.00;99.90;;;;;;5040375;28;20069;-50
2024/01/16 07:34:03;;;;;;;138.27;47.83;;;11.90;99.90;;;;;;5044028;28;20116;-52
2024/01/16 07:36:30;;;;;;;171.77;52.08;;;12.00;99.90;;;;;;5038627;28;20089;-58
2024/01/16 07:38:57;;;;;;;152.27;51.65;;;12.00;99.90;;;;;;5041752;28;20160;-53
2024/01/16 07:41:24;;;;;;;164.02;54.13;;;12.00;99.90;;;;;;5045143;28;20077;-49
2024/01/16 07:43:50;;;;;;;171.27;54.50;;;12.00;99.90;;;;;;5057810;28;20115;-47
2024/01/16 07:46:18;;;;;;;172.55;55.70;;;12.10;99.90;;;;;;5046571;28;21449;-55
2024/01/16 07:48:45;;;;;;;180.63;59.50;;;12.10;99.90;;;;;;5043707;28;20520;-51
2024/01/16 07:51:14;;;;;;;190.60;57.25;;;12.10;99.90;;;;;;5042786;28;20076;-50
2024/01/16 07:53:42;;;;;;;176.65;55.45;;;12.00;99.90;;;;;;5058036;28;20117;-53
2024/01/16 07:56:09;;;;;;;193.40;57.20;;;11.90;99.90;;;;;;5060802;28;20123;-56
2024/01/16 07:58:37;;;;;;;191.07;54.97;;;11.80;99.90;;;;;;5028316;28;20531;-58
2024/01/16 08:01:04;;;;;;;198.90;57.38;;;11.90;99.90;;;;;;5041377;28;20069;-54
2024/01/16 08:03:33;;;;;;;207.15;62.63;;;11.90;99.90;;;;;;5043856;28;20088;-49
2024/01/16 08:06:03;;;;;;;199.23;61.20;;;11.90;99.90;;;;;;5042242;28;20073;-48
2024/01/16 08:08:33;;;;;;;208.07;62.90;;;12.00;99.90;;;;;;5025021;28;20520;-50
2024/01/16 08:11:03;;;;;;;187.85;59.50;;;11.90;99.90;;;;;;5044863;28;20084;-52
2024/01/16 08:13:30;;;;;;;189.30;61.60;;;11.90;99.90;;;;;;5025896;28;20109;-52
2024/01/16 08:15:57;;;;;;;180.30;58.38;;;11.90;99.90;;;;;;5045117;28;20200;-53
2024/01/16 08:18:23;;;;;;;201.07;56.58;;;11.90;99.90;;;;;;5057718;28;20084;-50
2024/01/16 08:20:50;;;;;;;169.07;53.15;;;11.90;99.90;;;;;;5058945;28;20081;-50
2024/01/16 08:23:17;;;;;;;173.27;55.97;;;11.90;99.90;;;;;;5040279;28;20126;-51
2024/01/16 08:25:44;;;;;;;162.70;51.70;;;12.00;99.90;;;;;;5057983;28;20487;-53
2024/01/16 08:28:11;;;;;;;148.55;49.63;;;11.90;99.90;;;;;;5022918;28;20077;-50
2024/01/16 08:30:38;;;;;;;156.13;51.78;;;12.00;99.90;;;;;;5055215;28;20124;-50
2024/01/16 08:33:04;;;;;;;164.48;50.97;;;11.90;99.90;;;;;;5059047;28;20604;-53
2024/01/16 08:35:32;;;;;;;174.55;54.80;;;11.90;99.90;;;;;;5059313;28;20073;-49
2024/01/16 08:38:08;;;;;;;163.73;56.13;;;11.90;99.90;;;;;;5027423;28;20092;-50
2024/01/16 08:40:34;;;;;;;172.55;50.97;;;11.80;99.90;;;;;;5058558;28;20637;-50
2024/01/16 08:43:03;;;;;;;162.52;48.65;;;11.80;99.90;;;;;;5059385;28;20527;-53
2024/01/16 08:45:30;;;;;;;154.57;47.58;;;11.80;99.90;;;;;;5035304;28;20125;-51
2024/01/16 08:47:58;;;;;;;163.80;48.15;;;11.90;99.90;;;;;;5035805;28;20623;-54
2024/01/16 08:50:24;;;;;;;141.93;47.45;;;11.90;99.90;;;;;;5027063;28;20085;-49
2024/01/16 08:52:52;;;;;;;158.10;48.50;;;11.90;99.90;;;;;;5037066;28;20579;-51
2024/01/16 08:55:20;;;;;;;145.88;48.80;;;11.80;99.90;;;;;;5036762;28;20097;-51
2024/01/16 08:57:49;;;;;;;120.55;45.13;;;11.60;99.90;;;;;;5036014;28;20105;-57
2024/01/16 09:00:15;;;;;;;153.05;46.97;;;11.70;99.90;;;;;;5037449;28;20126;-55
2024/01/16 09:02:42;;;;;;;146.48;44.25;;;11.70;99.90;;;;;;5055447;28;20097;-51
2024/01/16 09:05:09;;;;;;;143.23;45.70;;;11.60;99.90;;;;;;5036539;28;20070;-49
2024/01/16 09:07:35;;;;;;;128.52;45.40;;;11.40;99.90;;;;;;5037763;28;20451;-52
2024/01/16 09:10:02;;;;;;;145.27;45.25;;;11.40;99.90;;;;;;5038483;28;20160;-56
2024/01/16 09:12:29;;;;;;;142.07;47.50;;;11.40;99.90;;;;;;5037319;28;20668;-53
2024/01/16 09:14:59;;;;;;;137.48;45.63;;;11.30;99.90;;;;;;5040132;28;20105;-56
2024/01/16 09:17:26;;;;;;;127.35;44.78;;;11.30;99.90;;;;;;5026607;28;20508;-51
2024/01/16 09:19:53;;;;;;;143.05;44.22;;;11.30;99.90;;;;;;5037305;28;20081;-50
2024/01/16 09:22:20;;;;;;;132.20;44.45;;;11.20;99.90;;;;;;5035778;28;20127;-50
2024/01/16 09:24:46;;;;;;;129.77;44.25;;;11.30;99.90;;;;;;5037136;28;20147;-48
2024/01/16 09:27:14;;;;;;;138.15;44.03;;;11.30;99.90;;;;;;5035439;28;20171;-54
2024/01/16 09:29:41;;;;;;;145.93;44.05;;;11.20;99.90;;;;;;5036993;28;20431;-48
2024/01/16 09:32:07;;;;;;;132.48;44.38;;;11.10;99.90;;;;;;5035759;28;20128;-50
2024/01/16 09:34:35;;;;;;;134.77;45.90;;;11.10;99.90;;;;;;5036205;28;20101;-48
2024/01/16 09:37:04;;;;;;;130.52;46.22;;;11.00;99.90;;;;;;5034368;28;20089;-49
2024/01/16 09:39:34;;;;;;;135.48;46.50;;;11.00;99.90;;;;;;5032711;28;20140;-52
2024/01/16 09:42:02;;;;;;;120.10;45.25;;;11.10;99.90;;;;;;5037187;28;20090;-49
2024/01/16 09:44:29;;;;;;;157.13;46.60;;;11.20;99.90;;;;;;5051304;28;20117;-49
2024/01/16 09:46:58;;;;;;;131.77;50.20;;;11.20;99.90;;;;;;5061066;28;20081;-47
2024/01/16 09:49:25;;;;;;;137.52;48.67;;;11.10;99.90;;;;;;5039373;28;20505;-49
2024/01/16 09:51:51;;;;;;;115.13;45.70;;;11.10;99.90;;;;;;5040825;28;20073;-50
2024/01/16 09:54:18;;;;;;;120.00;47.22;;;11.10;99.90;;;;;;5041757;28;20109;-49
2024/01/16 09:56:48;;;;;;;115.65;46.63;;;11.00;99.90;;;;;;5040869;28;20077;-51
2024/01/16 09:59:21;;;;;;;116.78;47.42;;;11.00;99.90;;;;;;5038993;28;20446;-50
2024/01/16 10:01:55;;;;;;;115.45;46.53;;;10.90;99.90;;;;;;5037953;28;20086;-47
2024/01/16 10:04:23;;;;;;;116.60;46.05;;;10.80;99.90;;;;;;5040729;28;20081;-47
2024/01/16 10:06:51;;;;;;;127.43;48.10;;;10.70;99.90;;;;;;5040784;28;20096;-58
2024/01/16 10:09:21;;;;;;;115.35;41.17;;;10.80;99.90;;;;;;5023603;28;20124;-50
2024/01/16 10:11:48;;;;;;;95.40;39.83;;;10.80;99.90;;;;;;5038479;28;20168;-51
2024/01/16 10:14:17;;;;;;;103.10;37.50;;;10.80;99.90;;;;;;5040760;28;20105;-50
2024/01/16 10:17:08;;;;;;;89.10;36.45;;;10.90;99.90;;;;;;5057071;28;20085;-50
2024/01/16 10:19:49;;;;;;;102.28;38.30;;;10.90;99.90;;;;;;5057402;28;20102;-53
2024/01/16 10:22:24;;;;;;;84.47;33.92;;;10.90;99.90;;;;;;5037851;28;20077;-50
2024/01/16 10:25:05;;;;;;;93.18;37.80;;;11.00;99.90;;;;;;5040601;28;20131;-49
2024/01/16 10:27:32;;;;;;;74.45;32.70;;;11.00;99.90;;;;;;5040938;28;20081;-54
2024/01/16 10:29:59;;;;;;;77.25;29.42;;;11.00;99.90;;;;;;5039744;28;20101;-47
2024/01/16 10:32:36;;;;;;;67.90;27.98;;;10.90;99.90;;;;;;5042853;28;20085;-54
2024/01/16 10:35:13;;;;;;;67.93;25.90;;;11.00;99.90;;;;;;5039001;28;20120;-52
2024/01/16 10:37:49;;;;;;;46.03;21.52;;;11.00;99.90;;;;;;5055593;28;20084;-52
2024/01/16 10:40:20;;;;;;;52.58;21.23;;;11.00;99.90;;;;;;5039524;28;20088;-50
2024/01/16 10:43:06;;;;;;;36.15;17.48;;;11.00;99.60;;;;;;5057842;28;20077;-55
2024/01/16 10:45:33;;;;;;;36.97;15.93;;;11.00;99.20;;;;;;5038298;28;20119;-49
2024/01/16 10:48:18;;;;;;;38.85;17.35;;;11.00;98.60;;;;;;5038485;28;20077;-48
2024/01/16 10:50:47;;;;;;;47.50;17.42;;;11.10;98.50;;;;;;5034174;28;20085;-48
2024/01/16 10:53:18;;;;;;;33.22;14.93;;;11.00;98.50;;;;;;5020270;28;20584;-53
2024/01/16 10:55:51;;;;;;;31.17;15.18;;;10.90;98.40;;;;;;5056367;28;20077;-49
2024/01/16 10:58:23;;;;;;;36.65;15.85;;;11.00;98.30;;;;;;5040808;28;20084;-51
2024/01/16 11:00:54;;;;;;;29.08;14.73;;;11.00;98.00;;;;;;5039627;28;20074;-50
2024/01/16 11:03:40;;;;;;;30.17;15.35;;;11.00;98.00;;;;;;5056164;28;20081;-51
2024/01/16 11:06:08;;;;;;;39.38;17.95;;;11.00;98.20;;;;;;5036208;28;20073;-52
2024/01/16 11:08:37;;;;;;;37.17;16.10;;;11.00;98.10;;;;;;5054413;28;20074;-47
2024/01/16 11:11:05;;;;;;;40.10;17.05;;;11.00;98.40;;;;;;5039797;28;20088;-49
2024/01/16 11:13:34;;;;;;;44.45;17.95;;;10.90;98.10;;;;;;5037920;28;20101;-57
2024/01/16 11:16:07;;;;;;;40.35;18.65;;;10.80;98.30;;;;;;5038258;28;20108;-49
2024/01/16 11:18:37;;;;;;;37.15;19.95;;;10.70;98.50;;;;;;5055722;28;20131;-54
2024/01/16 11:21:16;;;;;;;39.15;17.30;;;10.70;98.70;;;;;;5040238;28;20073;-51
2024/01/16 11:23:45;;;;;;;38.67;17.13;;;10.70;98.80;;;;;;5055939;28;20446;-51
2024/01/16 11:26:27;;;;;;;35.53;17.23;;;10.70;98.70;;;;;;5055488;28;20555;-50
2024/01/16 11:28:56;;;;;;;34.50;16.25;;;10.70;98.80;;;;;;5036192;28;20077;-47
2024/01/16 11:31:33;;;;;;;35.45;16.73;;;10.70;98.90;;;;;;5037550;28;20128;-50
2024/01/16 11:34:02;;;;;;;33.78;16.92;;;10.60;99.00;;;;;;5039000;28;20128;-50
2024/01/16 11:36:55;;;;;;;39.83;16.50;;;10.70;99.00;;;;;;5036271;28;20077;-48
2024/01/16 11:39:27;;;;;;;34.58;15.35;;;10.60;99.00;;;;;;5039607;28;20455;-50
2024/01/16 11:41:55;;;;;;;30.42;16.30;;;10.60;99.20;;;;;;5039394;28;20086;-47
2024/01/16 11:44:49;;;;;;;33.13;16.75;;;10.60;99.10;;;;;;5053002;28;20109;-50
2024/01/16 11:47:24;;;;;;;33.95;17.38;;;10.50;99.50;;;;;;5038697;28;20108;-53
2024/01/16 11:50:27;;;;;;;31.80;15.90;;;10.40;99.90;;;;;;5037414;28;20108;-50
2024/01/16 11:52:53;;;;;;;32.88;15.82;;;10.30;99.70;;;;;;5038427;28;20091;-54
2024/01/16 11:55:31;;;;;;;32.42;16.00;;;10.20;99.90;;;;;;5036701;28;20562;-51
2024/01/16 11:58:30;;;;;;;38.60;15.82;;;10.30;99.90;;;;;;5037339;28;20546;-50
2024/01/16 12:00:58;;;;;;;36.35;16.92;;;10.30;99.90;;;;;;5030852;28;20085;-55
2024/01/16 12:03:25;;;;;;;35.60;17.27;;;10.20;99.90;;;;;;5046477;28;20622;-49
2024/01/16 12:05:59;;;;;;;30.75;16.17;;;10.10;99.90;;;;;;5041465;28;20179;-48
2024/01/16 12:08:26;;;;;;;34.50;16.95;;;10.00;99.90;;;;;;5040671;28;20641;-48
2024/01/16 12:10:53;;;;;;;33.83;15.77;;;9.90;99.90;;;;;;5059465;28;20089;-48
2024/01/16 12:13:19;;;;;;;35.83;16.10;;;9.90;99.90;;;;;;5058798;28;20088;-47
2024/01/16 12:15:48;;;;;;;33.90;15.38;;;9.90;99.90;;;;;;5060331;28;20105;-48
2024/01/16 12:18:21;;;;;;;34.30;15.30;;;9.80;99.90;;;;;;5042443;28;20074;-47
2024/01/16 12:20:48;;;;;;;35.78;16.65;;;9.90;99.90;;;;;;5042969;28;20085;-49
2024/01/16 12:23:14;;;;;;;32.08;15.55;;;9.90;99.90;;;;;;5039450;28;20159;-49
2024/01/16 12:25:41;;;;;;;29.05;15.05;;;10.00;99.90;;;;;;5038796;28;20619;-49
2024/01/16 12:28:11;;;;;;;29.10;15.10;;;10.00;99.90;;;;;;5037562;28;20084;-53
2024/01/16 12:30:38;;;;;;;27.73;13.90;;;9.90;99.90;;;;;;5041865;28;20073;-47
2024/01/16 12:33:09;;;;;;;28.70;11.93;;;9.90;99.90;;;;;;5040714;28;20589;-50
2024/01/16 12:35:39;;;;;;;25.85;11.30;;;9.80;99.90;;;;;;5042654;28;20096;-51